sensor_id;sensor_type;location;lat;lon;timestamp;P1;durP1;ratioP1;P2;durP2;ratioP2
70796;SDS011;63842;52.144;5.360;2022-10-23T00:00:42;15.15;;;8.13;;
70796;SDS011;63842;52.144;5.360;2022-10-23T00:03:09;15.57;;;7.22;;
70796;SDS011;63842;52.144;5.360;2022-10-23T00:05:38;14.27;;;7.40;;
70796;SDS011;63842;52.144;5.360;2022-10-23T00:08:06;15.80;;;7.38;;
70796;SDS011;63842;52.144;5.360;2022-10-23T00:10:33;16.42;;;7.60;;
70796;SDS011;63842;52.144;5.360;2022-10-23T00:13:01;13.75;;;6.68;;
70796;SDS011;63842;52.144;5.360;2022-10-23T00:15:28;16.08;;;6.72;;
70796;SDS011;63842;52.144;5.360;2022-10-23T00:17:56;13.40;;;7.18;;
70796;SDS011;63842;52.144;5.360;2022-10-23T00:20:23;14.50;;;7.70;;
70796;SDS011;63842;52.144;5.360;2022-10-23T00:22:50;14.60;;;7.65;;
70796;SDS011;63842;52.144;5.360;2022-10-23T00:25:18;13.07;;;6.90;;
70796;SDS011;63842;52.144;5.360;2022-10-23T00:27:45;11.43;;;6.70;;
70796;SDS011;63842;52.144;5.360;2022-10-23T00:30:13;14.13;;;7.18;;
70796;SDS011;63842;52.144;5.360;2022-10-23T00:32:40;15.23;;;7.18;;
70796;SDS011;63842;52.144;5.360;2022-10-23T00:35:07;14.20;;;6.93;;
70796;SDS011;63842;52.144;5.360;2022-10-23T00:37:35;14.15;;;7.15;;
70796;SDS011;63842;52.144;5.360;2022-10-23T00:40:02;14.18;;;7.50;;
70796;SDS011;63842;52.144;5.360;2022-10-23T00:42:30;14.38;;;7.75;;
70796;SDS011;63842;52.144;5.360;2022-10-23T00:45:09;16.02;;;7.60;;
70796;SDS011;63842;52.144;5.360;2022-10-23T00:47:41;13.95;;;7.28;;
70796;SDS011;63842;52.144;5.360;2022-10-23T00:50:09;14.50;;;7.22;;
70796;SDS011;63842;52.144;5.360;2022-10-23T00:52:37;15.27;;;7.38;;
70796;SDS011;63842;52.144;5.360;2022-10-23T00:55:10;18.20;;;7.90;;
70796;SDS011;63842;52.144;5.360;2022-10-23T00:57:39;16.20;;;7.75;;
70796;SDS011;63842;52.144;5.360;2022-10-23T01:00:10;14.30;;;8.00;;
70796;SDS011;63842;52.144;5.360;2022-10-23T01:02:38;16.00;;;7.97;;
70796;SDS011;63842;52.144;5.360;2022-10-23T01:05:05;14.75;;;8.10;;
70796;SDS011;63842;52.144;5.360;2022-10-23T01:10:15;16.23;;;8.10;;
70796;SDS011;63842;52.144;5.360;2022-10-23T01:13:07;14.98;;;7.50;;
70796;SDS011;63842;52.144;5.360;2022-10-23T01:28:41;17.48;;;7.93;;
70796;SDS011;63842;52.144;5.360;2022-10-23T01:31:11;14.43;;;7.43;;
70796;SDS011;63842;52.144;5.360;2022-10-23T01:33:51;16.70;;;8.07;;
70796;SDS011;63842;52.144;5.360;2022-10-23T01:36:26;12.05;;;7.03;;
70796;SDS011;63842;52.144;5.360;2022-10-23T01:39:05;15.07;;;7.63;;
70796;SDS011;63842;52.144;5.360;2022-10-23T01:46:50;15.23;;;7.82;;
70796;SDS011;63842;52.144;5.360;2022-10-23T01:49:19;16.23;;;7.88;;
70796;SDS011;63842;52.144;5.360;2022-10-23T01:51:55;15.48;;;8.18;;
70796;SDS011;63842;52.144;5.360;2022-10-23T01:54:28;15.82;;;7.68;;
70796;SDS011;63842;52.144;5.360;2022-10-23T01:56:57;14.65;;;8.13;;
70796;SDS011;63842;52.144;5.360;2022-10-23T01:59:32;14.00;;;7.68;;
70796;SDS011;63842;52.144;5.360;2022-10-23T02:02:03;15.73;;;7.90;;
70796;SDS011;63842;52.144;5.360;2022-10-23T02:04:38;14.55;;;7.78;;
70796;SDS011;63842;52.144;5.360;2022-10-23T02:07:10;15.18;;;7.82;;
70796;SDS011;63842;52.144;5.360;2022-10-23T02:09:37;17.45;;;7.75;;
70796;SDS011;63842;52.144;5.360;2022-10-23T02:12:12;15.85;;;7.35;;
70796;SDS011;63842;52.144;5.360;2022-10-23T02:14:57;14.73;;;7.97;;
70796;SDS011;63842;52.144;5.360;2022-10-23T02:20:19;16.67;;;7.35;;
70796;SDS011;63842;52.144;5.360;2022-10-23T02:22:53;14.10;;;7.45;;
70796;SDS011;63842;52.144;5.360;2022-10-23T02:25:24;14.73;;;7.60;;
70796;SDS011;63842;52.144;5.360;2022-10-23T02:27:54;17.25;;;7.78;;
70796;SDS011;63842;52.144;5.360;2022-10-23T02:30:29;15.52;;;7.22;;
70796;SDS011;63842;52.144;5.360;2022-10-23T02:33:07;15.05;;;7.18;;
70796;SDS011;63842;52.144;5.360;2022-10-23T02:35:35;14.50;;;7.75;;
70796;SDS011;63842;52.144;5.360;2022-10-23T02:38:27;17.60;;;8.00;;
70796;SDS011;63842;52.144;5.360;2022-10-23T02:40:57;15.23;;;7.72;;
70796;SDS011;63842;52.144;5.360;2022-10-23T02:43:29;17.15;;;7.60;;
70796;SDS011;63842;52.144;5.360;2022-10-23T02:48:36;18.33;;;7.72;;
70796;SDS011;63842;52.144;5.360;2022-10-23T02:51:20;17.33;;;7.70;;
70796;SDS011;63842;52.144;5.360;2022-10-23T02:54:06;18.92;;;7.88;;
70796;SDS011;63842;52.144;5.360;2022-10-23T02:59:06;15.63;;;7.68;;
70796;SDS011;63842;52.144;5.360;2022-10-23T03:01:53;14.98;;;8.20;;
70796;SDS011;63842;52.144;5.360;2022-10-23T03:04:22;15.88;;;7.85;;
70796;SDS011;63842;52.144;5.360;2022-10-23T03:06:51;13.98;;;7.68;;
70796;SDS011;63842;52.144;5.360;2022-10-23T03:09:18;14.68;;;7.10;;
70796;SDS011;63842;52.144;5.360;2022-10-23T03:11:46;13.80;;;7.25;;
70796;SDS011;63842;52.144;5.360;2022-10-23T03:14:13;16.85;;;7.85;;
70796;SDS011;63842;52.144;5.360;2022-10-23T03:16:40;17.05;;;7.15;;
70796;SDS011;63842;52.144;5.360;2022-10-23T03:19:08;15.10;;;7.50;;
70796;SDS011;63842;52.144;5.360;2022-10-23T03:21:35;14.60;;;7.70;;
70796;SDS011;63842;52.144;5.360;2022-10-23T03:24:06;15.00;;;6.95;;
70796;SDS011;63842;52.144;5.360;2022-10-23T03:26:42;15.93;;;7.22;;
70796;SDS011;63842;52.144;5.360;2022-10-23T03:29:09;13.60;;;6.93;;
70796;SDS011;63842;52.144;5.360;2022-10-23T03:31:43;13.98;;;7.00;;
70796;SDS011;63842;52.144;5.360;2022-10-23T03:34:10;17.05;;;7.05;;
70796;SDS011;63842;52.144;5.360;2022-10-23T03:36:39;14.73;;;7.28;;
70796;SDS011;63842;52.144;5.360;2022-10-23T03:39:08;16.13;;;7.25;;
70796;SDS011;63842;52.144;5.360;2022-10-23T03:41:35;13.15;;;6.90;;
70796;SDS011;63842;52.144;5.360;2022-10-23T03:44:02;13.75;;;7.22;;
70796;SDS011;63842;52.144;5.360;2022-10-23T03:46:35;13.43;;;7.07;;
70796;SDS011;63842;52.144;5.360;2022-10-23T03:49:02;14.65;;;7.13;;
70796;SDS011;63842;52.144;5.360;2022-10-23T03:51:31;14.88;;;6.88;;
70796;SDS011;63842;52.144;5.360;2022-10-23T03:53:58;14.30;;;7.13;;
70796;SDS011;63842;52.144;5.360;2022-10-23T03:56:25;12.60;;;6.47;;
70796;SDS011;63842;52.144;5.360;2022-10-23T03:58:53;13.98;;;6.82;;
70796;SDS011;63842;52.144;5.360;2022-10-23T04:01:22;14.05;;;6.50;;
70796;SDS011;63842;52.144;5.360;2022-10-23T04:03:50;13.70;;;6.57;;
70796;SDS011;63842;52.144;5.360;2022-10-23T04:06:17;12.32;;;6.43;;
70796;SDS011;63842;52.144;5.360;2022-10-23T04:08:45;12.88;;;5.72;;
70796;SDS011;63842;52.144;5.360;2022-10-23T04:11:15;16.23;;;6.40;;
70796;SDS011;63842;52.144;5.360;2022-10-23T04:13:44;14.90;;;6.47;;
70796;SDS011;63842;52.144;5.360;2022-10-23T04:16:11;16.08;;;6.90;;
70796;SDS011;63842;52.144;5.360;2022-10-23T04:18:39;14.93;;;6.38;;
70796;SDS011;63842;52.144;5.360;2022-10-23T04:23:34;12.40;;;5.93;;
70796;SDS011;63842;52.144;5.360;2022-10-23T04:26:03;13.90;;;6.20;;
70796;SDS011;63842;52.144;5.360;2022-10-23T04:28:31;12.85;;;6.18;;
70796;SDS011;63842;52.144;5.360;2022-10-23T04:30:58;14.50;;;5.80;;
70796;SDS011;63842;52.144;5.360;2022-10-23T04:33:25;13.18;;;6.10;;
70796;SDS011;63842;52.144;5.360;2022-10-23T04:35:53;16.38;;;5.80;;
70796;SDS011;63842;52.144;5.360;2022-10-23T04:38:20;13.77;;;6.35;;
70796;SDS011;63842;52.144;5.360;2022-10-23T04:40:48;14.68;;;6.45;;
70796;SDS011;63842;52.144;5.360;2022-10-23T04:43:19;12.57;;;5.45;;
70796;SDS011;63842;52.144;5.360;2022-10-23T04:45:47;12.70;;;5.82;;
70796;SDS011;63842;52.144;5.360;2022-10-23T04:48:14;12.05;;;5.75;;
70796;SDS011;63842;52.144;5.360;2022-10-23T04:51:14;13.30;;;6.03;;
70796;SDS011;63842;52.144;5.360;2022-10-23T04:53:52;13.68;;;5.88;;
70796;SDS011;63842;52.144;5.360;2022-10-23T04:56:26;12.93;;;5.72;;
70796;SDS011;63842;52.144;5.360;2022-10-23T04:59:00;13.05;;;5.75;;
70796;SDS011;63842;52.144;5.360;2022-10-23T05:01:29;12.15;;;5.43;;
70796;SDS011;63842;52.144;5.360;2022-10-23T05:03:57;12.88;;;5.35;;
70796;SDS011;63842;52.144;5.360;2022-10-23T05:06:24;16.65;;;6.00;;
70796;SDS011;63842;52.144;5.360;2022-10-23T05:09:16;12.10;;;5.15;;
70796;SDS011;63842;52.144;5.360;2022-10-23T05:12:10;12.40;;;5.68;;
70796;SDS011;63842;52.144;5.360;2022-10-23T05:14:37;12.48;;;5.15;;
70796;SDS011;63842;52.144;5.360;2022-10-23T05:17:06;15.27;;;6.00;;
70796;SDS011;63842;52.144;5.360;2022-10-23T05:19:39;11.63;;;5.40;;
70796;SDS011;63842;52.144;5.360;2022-10-23T05:22:09;13.40;;;5.53;;
70796;SDS011;63842;52.144;5.360;2022-10-23T05:24:46;12.38;;;5.47;;
70796;SDS011;63842;52.144;5.360;2022-10-23T05:27:19;12.35;;;5.50;;
70796;SDS011;63842;52.144;5.360;2022-10-23T05:29:47;12.52;;;5.30;;
70796;SDS011;63842;52.144;5.360;2022-10-23T05:32:17;12.93;;;5.70;;
70796;SDS011;63842;52.144;5.360;2022-10-23T05:34:49;11.13;;;5.70;;
70796;SDS011;63842;52.144;5.360;2022-10-23T05:37:16;12.00;;;5.20;;
70796;SDS011;63842;52.144;5.360;2022-10-23T05:39:44;10.77;;;5.53;;
70796;SDS011;63842;52.144;5.360;2022-10-23T05:42:13;15.20;;;5.55;;
70796;SDS011;63842;52.144;5.360;2022-10-23T05:44:40;12.65;;;5.30;;
70796;SDS011;63842;52.144;5.360;2022-10-23T05:47:20;14.98;;;5.55;;
70796;SDS011;63842;52.144;5.360;2022-10-23T05:50:06;11.55;;;5.13;;
70796;SDS011;63842;52.144;5.360;2022-10-23T05:52:47;13.88;;;5.47;;
70796;SDS011;63842;52.144;5.360;2022-10-23T05:55:47;11.00;;;5.43;;
70796;SDS011;63842;52.144;5.360;2022-10-23T05:58:33;11.05;;;5.30;;
70796;SDS011;63842;52.144;5.360;2022-10-23T06:01:12;10.63;;;5.00;;
70796;SDS011;63842;52.144;5.360;2022-10-23T06:03:54;14.48;;;6.10;;
70796;SDS011;63842;52.144;5.360;2022-10-23T06:06:28;13.10;;;5.60;;
70796;SDS011;63842;52.144;5.360;2022-10-23T06:08:55;12.93;;;5.30;;
70796;SDS011;63842;52.144;5.360;2022-10-23T06:11:23;13.13;;;5.85;;
70796;SDS011;63842;52.144;5.360;2022-10-23T06:13:58;13.85;;;5.05;;
70796;SDS011;63842;52.144;5.360;2022-10-23T06:16:26;11.35;;;5.30;;
70796;SDS011;63842;52.144;5.360;2022-10-23T06:18:53;12.48;;;4.95;;
70796;SDS011;63842;52.144;5.360;2022-10-23T06:21:22;13.00;;;5.20;;
70796;SDS011;63842;52.144;5.360;2022-10-23T06:23:51;12.50;;;5.40;;
70796;SDS011;63842;52.144;5.360;2022-10-23T06:26:41;12.63;;;5.22;;
70796;SDS011;63842;52.144;5.360;2022-10-23T06:29:14;9.18;;;4.57;;
70796;SDS011;63842;52.144;5.360;2022-10-23T06:31:42;12.48;;;4.63;;
70796;SDS011;63842;52.144;5.360;2022-10-23T06:34:11;11.05;;;5.38;;
70796;SDS011;63842;52.144;5.360;2022-10-23T06:36:38;14.20;;;5.80;;
70796;SDS011;63842;52.144;5.360;2022-10-23T06:39:43;11.52;;;5.28;;
70796;SDS011;63842;52.144;5.360;2022-10-23T06:42:13;14.23;;;5.43;;
70796;SDS011;63842;52.144;5.360;2022-10-23T06:45:04;13.20;;;5.22;;
70796;SDS011;63842;52.144;5.360;2022-10-23T06:47:51;12.15;;;4.97;;
70796;SDS011;63842;52.144;5.360;2022-10-23T06:50:24;13.30;;;5.03;;
70796;SDS011;63842;52.144;5.360;2022-10-23T06:52:52;13.55;;;5.63;;
70796;SDS011;63842;52.144;5.360;2022-10-23T06:55:20;11.10;;;5.00;;
70796;SDS011;63842;52.144;5.360;2022-10-23T06:57:49;11.77;;;4.90;;
70796;SDS011;63842;52.144;5.360;2022-10-23T07:00:16;12.18;;;5.63;;
70796;SDS011;63842;52.144;5.360;2022-10-23T07:02:48;12.18;;;5.38;;
70796;SDS011;63842;52.144;5.360;2022-10-23T07:05:16;15.43;;;5.13;;
70796;SDS011;63842;52.144;5.360;2022-10-23T07:07:43;14.52;;;5.07;;
70796;SDS011;63842;52.144;5.360;2022-10-23T07:10:16;14.75;;;6.00;;
70796;SDS011;63842;52.144;5.360;2022-10-23T07:12:46;12.82;;;5.07;;
70796;SDS011;63842;52.144;5.360;2022-10-23T07:15:40;12.90;;;5.13;;
70796;SDS011;63842;52.144;5.360;2022-10-23T07:18:13;14.65;;;5.70;;
70796;SDS011;63842;52.144;5.360;2022-10-23T07:21:02;12.13;;;5.40;;
70796;SDS011;63842;52.144;5.360;2022-10-23T07:23:30;13.18;;;5.15;;
70796;SDS011;63842;52.144;5.360;2022-10-23T07:26:08;11.30;;;4.78;;
70796;SDS011;63842;52.144;5.360;2022-10-23T07:28:36;14.00;;;5.40;;
70796;SDS011;63842;52.144;5.360;2022-10-23T07:31:04;12.57;;;5.07;;
70796;SDS011;63842;52.144;5.360;2022-10-23T07:33:53;13.43;;;5.65;;
70796;SDS011;63842;52.144;5.360;2022-10-23T07:36:21;15.15;;;5.60;;
70796;SDS011;63842;52.144;5.360;2022-10-23T07:38:49;11.90;;;5.78;;
70796;SDS011;63842;52.144;5.360;2022-10-23T07:41:16;11.10;;;5.22;;
70796;SDS011;63842;52.144;5.360;2022-10-23T07:43:43;16.70;;;5.65;;
70796;SDS011;63842;52.144;5.360;2022-10-23T07:46:11;15.13;;;5.55;;
70796;SDS011;63842;52.144;5.360;2022-10-23T07:48:38;13.38;;;5.80;;
70796;SDS011;63842;52.144;5.360;2022-10-23T07:51:07;13.98;;;5.75;;
70796;SDS011;63842;52.144;5.360;2022-10-23T07:53:43;14.55;;;6.10;;
70796;SDS011;63842;52.144;5.360;2022-10-23T07:56:24;12.82;;;5.95;;
70796;SDS011;63842;52.144;5.360;2022-10-23T07:59:11;14.68;;;5.80;;
70796;SDS011;63842;52.144;5.360;2022-10-23T08:01:39;14.18;;;6.15;;
70796;SDS011;63842;52.144;5.360;2022-10-23T08:06:42;15.15;;;5.88;;
70796;SDS011;63842;52.144;5.360;2022-10-23T08:09:10;14.88;;;5.97;;
70796;SDS011;63842;52.144;5.360;2022-10-23T08:11:40;13.80;;;5.35;;
70796;SDS011;63842;52.144;5.360;2022-10-23T08:14:10;13.13;;;5.70;;
70796;SDS011;63842;52.144;5.360;2022-10-23T08:16:41;12.80;;;5.65;;
70796;SDS011;63842;52.144;5.360;2022-10-23T08:19:17;11.27;;;5.40;;
70796;SDS011;63842;52.144;5.360;2022-10-23T08:21:46;11.02;;;5.38;;
70796;SDS011;63842;52.144;5.360;2022-10-23T08:24:13;13.25;;;5.75;;
70796;SDS011;63842;52.144;5.360;2022-10-23T08:26:43;12.00;;;5.75;;
70796;SDS011;63842;52.144;5.360;2022-10-23T08:29:12;13.40;;;5.90;;
70796;SDS011;63842;52.144;5.360;2022-10-23T08:31:40;11.35;;;5.22;;
70796;SDS011;63842;52.144;5.360;2022-10-23T08:34:13;11.20;;;4.93;;
70796;SDS011;63842;52.144;5.360;2022-10-23T08:36:43;13.65;;;5.47;;
70796;SDS011;63842;52.144;5.360;2022-10-23T08:39:11;12.95;;;5.13;;
70796;SDS011;63842;52.144;5.360;2022-10-23T08:41:49;13.05;;;5.70;;
70796;SDS011;63842;52.144;5.360;2022-10-23T08:47:12;13.23;;;6.03;;
70796;SDS011;63842;52.144;5.360;2022-10-23T08:50:11;13.20;;;5.53;;
70796;SDS011;63842;52.144;5.360;2022-10-23T08:52:47;13.30;;;5.40;;
70796;SDS011;63842;52.144;5.360;2022-10-23T08:55:20;14.55;;;5.22;;
70796;SDS011;63842;52.144;5.360;2022-10-23T09:00:48;12.77;;;5.30;;
70796;SDS011;63842;52.144;5.360;2022-10-23T09:03:16;14.38;;;5.22;;
70796;SDS011;63842;52.144;5.360;2022-10-23T09:08:38;13.80;;;5.32;;
70796;SDS011;63842;52.144;5.360;2022-10-23T09:14:06;13.30;;;5.65;;
70796;SDS011;63842;52.144;5.360;2022-10-23T09:17:21;13.40;;;5.25;;
70796;SDS011;63842;52.144;5.360;2022-10-23T09:20:17;12.70;;;5.50;;
70796;SDS011;63842;52.144;5.360;2022-10-23T09:22:41;12.38;;;5.25;;
70796;SDS011;63842;52.144;5.360;2022-10-23T09:25:16;11.73;;;5.38;;
70796;SDS011;63842;52.144;5.360;2022-10-23T09:27:48;12.50;;;5.10;;
70796;SDS011;63842;52.144;5.360;2022-10-23T09:30:37;10.13;;;4.90;;
70796;SDS011;63842;52.144;5.360;2022-10-23T09:33:14;10.88;;;4.75;;
70796;SDS011;63842;52.144;5.360;2022-10-23T09:35:51;10.90;;;4.75;;
70796;SDS011;63842;52.144;5.360;2022-10-23T09:38:29;13.75;;;5.35;;
70796;SDS011;63842;52.144;5.360;2022-10-23T09:43:43;12.18;;;6.07;;
70796;SDS011;63842;52.144;5.360;2022-10-23T09:46:10;12.60;;;6.70;;
70796;SDS011;63842;52.144;5.360;2022-10-23T09:48:38;12.70;;;6.47;;
70796;SDS011;63842;52.144;5.360;2022-10-23T09:51:20;14.00;;;5.88;;
70796;SDS011;63842;52.144;5.360;2022-10-23T09:53:48;12.68;;;5.57;;
70796;SDS011;63842;52.144;5.360;2022-10-23T09:56:34;11.45;;;4.88;;
70796;SDS011;63842;52.144;5.360;2022-10-23T09:59:27;10.32;;;4.03;;
70796;SDS011;63842;52.144;5.360;2022-10-23T10:01:54;12.00;;;4.60;;
70796;SDS011;63842;52.144;5.360;2022-10-23T10:04:47;12.07;;;4.68;;
70796;SDS011;63842;52.144;5.360;2022-10-23T10:07:24;11.63;;;4.63;;
70796;SDS011;63842;52.144;5.360;2022-10-23T10:09:52;11.43;;;4.47;;
70796;SDS011;63842;52.144;5.360;2022-10-23T10:22:52;10.02;;;4.03;;
70796;SDS011;63842;52.144;5.360;2022-10-23T10:33:05;12.00;;;4.35;;
70796;SDS011;63842;52.144;5.360;2022-10-23T10:45:56;10.68;;;3.95;;
70796;SDS011;63842;52.144;5.360;2022-10-23T10:51:58;12.45;;;4.43;;
70796;SDS011;63842;52.144;5.360;2022-10-23T10:56:57;9.98;;;3.83;;
70796;SDS011;63842;52.144;5.360;2022-10-23T10:59:29;11.00;;;4.13;;
70796;SDS011;63842;52.144;5.360;2022-10-23T11:02:04;10.80;;;4.30;;
70796;SDS011;63842;52.144;5.360;2022-10-23T11:07:10;11.93;;;3.97;;
70796;SDS011;63842;52.144;5.360;2022-10-23T11:09:40;10.77;;;4.00;;
70796;SDS011;63842;52.144;5.360;2022-10-23T11:12:19;11.07;;;4.50;;
70796;SDS011;63842;52.144;5.360;2022-10-23T11:14:49;13.43;;;4.50;;
70796;SDS011;63842;52.144;5.360;2022-10-23T11:19:58;15.05;;;4.68;;
70796;SDS011;63842;52.144;5.360;2022-10-23T11:22:41;8.32;;;4.25;;
70796;SDS011;63842;52.144;5.360;2022-10-23T11:30:56;8.75;;;3.83;;
70796;SDS011;63842;52.144;5.360;2022-10-23T11:33:51;9.38;;;3.58;;
70796;SDS011;63842;52.144;5.360;2022-10-23T11:39:21;12.45;;;4.20;;
70796;SDS011;63842;52.144;5.360;2022-10-23T11:41:54;11.30;;;3.80;;
70796;SDS011;63842;52.144;5.360;2022-10-23T11:52:36;10.27;;;3.58;;
70796;SDS011;63842;52.144;5.360;2022-10-23T12:00:50;11.23;;;3.90;;
70796;SDS011;63842;52.144;5.360;2022-10-23T12:03:18;8.50;;;3.40;;
70796;SDS011;63842;52.144;5.360;2022-10-23T12:05:46;9.10;;;3.22;;
70796;SDS011;63842;52.144;5.360;2022-10-23T12:08:24;11.40;;;3.08;;
70796;SDS011;63842;52.144;5.360;2022-10-23T12:10:54;10.77;;;3.58;;
70796;SDS011;63842;52.144;5.360;2022-10-23T12:16:12;8.80;;;3.53;;
70796;SDS011;63842;52.144;5.360;2022-10-23T12:21:21;9.70;;;3.53;;
70796;SDS011;63842;52.144;5.360;2022-10-23T12:26:43;10.98;;;3.40;;
70796;SDS011;63842;52.144;5.360;2022-10-23T12:29:49;11.75;;;3.42;;
70796;SDS011;63842;52.144;5.360;2022-10-23T12:32:25;9.30;;;3.00;;
70796;SDS011;63842;52.144;5.360;2022-10-23T12:35:41;8.75;;;3.28;;
70796;SDS011;63842;52.144;5.360;2022-10-23T12:40:43;8.93;;;3.00;;
70796;SDS011;63842;52.144;5.360;2022-10-23T12:45:47;9.07;;;3.10;;
70796;SDS011;63842;52.144;5.360;2022-10-23T12:48:18;8.98;;;3.50;;
70796;SDS011;63842;52.144;5.360;2022-10-23T12:50:47;10.60;;;3.35;;
70796;SDS011;63842;52.144;5.360;2022-10-23T12:53:16;9.63;;;3.17;;
70796;SDS011;63842;52.144;5.360;2022-10-23T12:55:57;9.57;;;3.50;;
70796;SDS011;63842;52.144;5.360;2022-10-23T12:58:32;8.75;;;3.33;;
70796;SDS011;63842;52.144;5.360;2022-10-23T13:01:03;9.20;;;3.40;;
70796;SDS011;63842;52.144;5.360;2022-10-23T13:03:32;9.65;;;3.22;;
70796;SDS011;63842;52.144;5.360;2022-10-23T13:06:00;10.52;;;3.35;;
70796;SDS011;63842;52.144;5.360;2022-10-23T13:08:39;10.82;;;3.13;;
70796;SDS011;63842;52.144;5.360;2022-10-23T13:11:23;9.10;;;2.90;;
70796;SDS011;63842;52.144;5.360;2022-10-23T13:13:54;9.02;;;2.83;;
70796;SDS011;63842;52.144;5.360;2022-10-23T13:16:22;7.43;;;2.63;;
70796;SDS011;63842;52.144;5.360;2022-10-23T13:18:50;8.57;;;3.03;;
70796;SDS011;63842;52.144;5.360;2022-10-23T13:21:19;7.97;;;3.00;;
70796;SDS011;63842;52.144;5.360;2022-10-23T13:23:48;9.27;;;3.05;;
70796;SDS011;63842;52.144;5.360;2022-10-23T13:28:55;10.68;;;3.05;;
70796;SDS011;63842;52.144;5.360;2022-10-23T13:31:24;8.82;;;2.65;;
70796;SDS011;63842;52.144;5.360;2022-10-23T13:36:27;8.18;;;2.70;;
70796;SDS011;63842;52.144;5.360;2022-10-23T13:38:59;9.57;;;2.90;;
70796;SDS011;63842;52.144;5.360;2022-10-23T13:41:28;7.82;;;2.63;;
70796;SDS011;63842;52.144;5.360;2022-10-23T13:46:23;8.13;;;2.78;;
70796;SDS011;63842;52.144;5.360;2022-10-23T13:48:53;9.70;;;2.90;;
70796;SDS011;63842;52.144;5.360;2022-10-23T13:51:27;7.80;;;2.80;;
70796;SDS011;63842;52.144;5.360;2022-10-23T13:53:57;8.05;;;2.83;;
70796;SDS011;63842;52.144;5.360;2022-10-23T13:56:25;7.10;;;2.50;;
70796;SDS011;63842;52.144;5.360;2022-10-23T13:58:52;7.15;;;2.90;;
70796;SDS011;63842;52.144;5.360;2022-10-23T14:01:22;10.02;;;3.15;;
70796;SDS011;63842;52.144;5.360;2022-10-23T14:03:54;9.88;;;2.85;;
70796;SDS011;63842;52.144;5.360;2022-10-23T14:06:22;6.82;;;2.55;;
70796;SDS011;63842;52.144;5.360;2022-10-23T14:08:50;9.07;;;2.85;;
70796;SDS011;63842;52.144;5.360;2022-10-23T14:11:18;8.60;;;2.80;;
70796;SDS011;63842;52.144;5.360;2022-10-23T14:13:46;8.77;;;3.00;;
70796;SDS011;63842;52.144;5.360;2022-10-23T14:16:14;8.88;;;2.85;;
70796;SDS011;63842;52.144;5.360;2022-10-23T14:21:10;8.77;;;2.70;;
70796;SDS011;63842;52.144;5.360;2022-10-23T14:23:39;9.10;;;2.70;;
70796;SDS011;63842;52.144;5.360;2022-10-23T14:26:10;8.32;;;2.55;;
70796;SDS011;63842;52.144;5.360;2022-10-23T14:28:39;8.98;;;2.60;;
70796;SDS011;63842;52.144;5.360;2022-10-23T14:31:07;11.10;;;2.70;;
70796;SDS011;63842;52.144;5.360;2022-10-23T14:33:36;9.40;;;2.83;;
70796;SDS011;63842;52.144;5.360;2022-10-23T14:36:03;8.68;;;2.83;;
70796;SDS011;63842;52.144;5.360;2022-10-23T14:38:31;8.48;;;2.75;;
70796;SDS011;63842;52.144;5.360;2022-10-23T14:40:58;9.57;;;2.97;;
70796;SDS011;63842;52.144;5.360;2022-10-23T14:43:25;7.68;;;2.67;;
70796;SDS011;63842;52.144;5.360;2022-10-23T14:45:53;9.45;;;2.90;;
70796;SDS011;63842;52.144;5.360;2022-10-23T14:48:20;9.13;;;2.95;;
70796;SDS011;63842;52.144;5.360;2022-10-23T14:50:47;8.82;;;2.58;;
70796;SDS011;63842;52.144;5.360;2022-10-23T14:53:15;9.32;;;2.75;;
70796;SDS011;63842;52.144;5.360;2022-10-23T14:55:42;8.70;;;2.95;;
70796;SDS011;63842;52.144;5.360;2022-10-23T14:58:10;6.82;;;2.80;;
70796;SDS011;63842;52.144;5.360;2022-10-23T15:00:37;11.10;;;2.90;;
70796;SDS011;63842;52.144;5.360;2022-10-23T15:03:04;7.85;;;2.72;;
70796;SDS011;63842;52.144;5.360;2022-10-23T15:05:32;9.77;;;2.90;;
70796;SDS011;63842;52.144;5.360;2022-10-23T15:07:59;7.93;;;2.75;;
70796;SDS011;63842;52.144;5.360;2022-10-23T15:10:26;8.85;;;3.13;;
70796;SDS011;63842;52.144;5.360;2022-10-23T15:12:54;9.68;;;2.67;;
70796;SDS011;63842;52.144;5.360;2022-10-23T15:15:21;8.15;;;2.97;;
70796;SDS011;63842;52.144;5.360;2022-10-23T15:17:49;8.00;;;2.78;;
70796;SDS011;63842;52.144;5.360;2022-10-23T15:20:16;7.20;;;3.13;;
70796;SDS011;63842;52.144;5.360;2022-10-23T15:22:43;9.07;;;2.83;;
70796;SDS011;63842;52.144;5.360;2022-10-23T15:25:11;8.07;;;3.03;;
70796;SDS011;63842;52.144;5.360;2022-10-23T15:27:43;10.35;;;3.08;;
70796;SDS011;63842;52.144;5.360;2022-10-23T15:30:11;8.63;;;3.00;;
70796;SDS011;63842;52.144;5.360;2022-10-23T15:32:38;11.10;;;2.88;;
70796;SDS011;63842;52.144;5.360;2022-10-23T15:35:06;16.13;;;3.90;;
70796;SDS011;63842;52.144;5.360;2022-10-23T15:37:33;10.15;;;3.20;;
70796;SDS011;63842;52.144;5.360;2022-10-23T15:40:00;8.55;;;3.45;;
70796;SDS011;63842;52.144;5.360;2022-10-23T15:42:28;9.00;;;3.25;;
70796;SDS011;63842;52.144;5.360;2022-10-23T15:44:55;9.23;;;3.08;;
70796;SDS011;63842;52.144;5.360;2022-10-23T15:47:22;8.15;;;2.97;;
70796;SDS011;63842;52.144;5.360;2022-10-23T15:49:49;8.02;;;2.97;;
70796;SDS011;63842;52.144;5.360;2022-10-23T15:52:16;7.50;;;3.25;;
70796;SDS011;63842;52.144;5.360;2022-10-23T15:54:44;8.23;;;2.90;;
70796;SDS011;63842;52.144;5.360;2022-10-23T15:57:11;10.80;;;3.50;;
70796;SDS011;63842;52.144;5.360;2022-10-23T15:59:38;7.95;;;2.90;;
70796;SDS011;63842;52.144;5.360;2022-10-23T16:02:05;10.73;;;2.90;;
70796;SDS011;63842;52.144;5.360;2022-10-23T16:04:34;9.85;;;4.03;;
70796;SDS011;63842;52.144;5.360;2022-10-23T16:07:01;9.50;;;3.03;;
70796;SDS011;63842;52.144;5.360;2022-10-23T16:09:28;11.50;;;3.20;;
70796;SDS011;63842;52.144;5.360;2022-10-23T16:11:56;10.73;;;3.30;;
70796;SDS011;63842;52.144;5.360;2022-10-23T16:14:23;10.18;;;3.45;;
70796;SDS011;63842;52.144;5.360;2022-10-23T16:16:50;9.18;;;3.08;;
70796;SDS011;63842;52.144;5.360;2022-10-23T16:19:17;10.13;;;3.33;;
70796;SDS011;63842;52.144;5.360;2022-10-23T16:21:44;11.65;;;3.63;;
70796;SDS011;63842;52.144;5.360;2022-10-23T16:24:12;8.90;;;3.15;;
70796;SDS011;63842;52.144;5.360;2022-10-23T16:26:39;10.70;;;3.40;;
70796;SDS011;63842;52.144;5.360;2022-10-23T16:29:07;10.10;;;3.20;;
70796;SDS011;63842;52.144;5.360;2022-10-23T16:31:35;8.98;;;3.40;;
70796;SDS011;63842;52.144;5.360;2022-10-23T16:34:02;9.25;;;3.53;;
70796;SDS011;63842;52.144;5.360;2022-10-23T16:36:30;9.82;;;3.33;;
70796;SDS011;63842;52.144;5.360;2022-10-23T16:39:13;12.32;;;3.33;;
70796;SDS011;63842;52.144;5.360;2022-10-23T16:42:01;8.98;;;3.45;;
70796;SDS011;63842;52.144;5.360;2022-10-23T16:45:00;12.90;;;3.78;;
70796;SDS011;63842;52.144;5.360;2022-10-23T16:47:29;8.52;;;3.28;;
70796;SDS011;63842;52.144;5.360;2022-10-23T16:49:56;14.43;;;3.78;;
70796;SDS011;63842;52.144;5.360;2022-10-23T16:52:24;9.35;;;3.05;;
70796;SDS011;63842;52.144;5.360;2022-10-23T16:54:52;9.45;;;3.63;;
70796;SDS011;63842;52.144;5.360;2022-10-23T16:57:19;9.75;;;3.13;;
70796;SDS011;63842;52.144;5.360;2022-10-23T16:59:47;13.52;;;3.58;;
70796;SDS011;63842;52.144;5.360;2022-10-23T17:02:14;9.50;;;3.33;;
70796;SDS011;63842;52.144;5.360;2022-10-23T17:04:41;9.70;;;3.22;;
70796;SDS011;63842;52.144;5.360;2022-10-23T17:07:09;7.72;;;3.22;;
70796;SDS011;63842;52.144;5.360;2022-10-23T17:09:38;9.20;;;3.50;;
70796;SDS011;63842;52.144;5.360;2022-10-23T17:12:06;7.70;;;3.40;;
70796;SDS011;63842;52.144;5.360;2022-10-23T17:14:33;9.55;;;3.25;;
70796;SDS011;63842;52.144;5.360;2022-10-23T17:17:00;8.45;;;3.15;;
70796;SDS011;63842;52.144;5.360;2022-10-23T17:19:28;11.90;;;3.40;;